createdAt,value
2018-12-17T00:00:20.760Z,98720.03
2018-12-17T00:01:50.790Z,98725.41
2018-12-17T00:03:20.697Z,98727.15
2018-12-17T00:04:50.578Z,98725.33
2018-12-17T00:06:20.460Z,98726.98
2018-12-17T00:07:50.376Z,98725.13
2018-12-17T00:09:20.414Z,98724.16
2018-12-17T00:10:50.307Z,98728.25
2018-12-17T00:12:20.218Z,98728.36
2018-12-17T00:13:50.121Z,98723.19
2018-12-17T00:15:20.106Z,98718.03
2018-12-17T00:16:50.018Z,98718.89
2018-12-17T00:18:19.898Z,98720.97
2018-12-17T00:19:49.787Z,98720.56
2018-12-17T00:21:19.679Z,98722.84
2018-12-17T00:22:49.589Z,98724.08
2018-12-17T00:24:19.466Z,98717.48
2018-12-17T00:28:13.231Z,98722.97
2018-12-17T00:29:43.112Z,98728.61
2018-12-17T00:31:13.011Z,98724.94
2018-12-17T00:32:42.916Z,98724.09
2018-12-17T00:34:12.794Z,98725.52
2018-12-17T00:35:42.682Z,98721.17
2018-12-17T00:37:12.594Z,98722.44
2018-12-17T00:38:42.474Z,98721.28
2018-12-17T00:40:12.729Z,98723.09
2018-12-17T00:41:42.636Z,98714.17
2018-12-17T00:43:12.524Z,98710.75
2018-12-17T00:44:42.410Z,98714.75
2018-12-17T00:46:12.419Z,98714.61
2018-12-17T00:47:42.336Z,98718.84
2018-12-17T00:49:12.217Z,98714.92
2018-12-17T00:50:42.214Z,98711.01
2018-12-17T00:52:12.102Z,98710.34
2018-12-17T00:53:41.987Z,98714.77
2018-12-17T00:55:12.302Z,98709.83
2018-12-17T00:56:42.187Z,98711.69
2018-12-17T00:58:15.114Z,98713.81
2018-12-17T00:59:43.970Z,98708.70
2018-12-17T01:01:13.869Z,98709.97
2018-12-17T01:02:43.877Z,98706.17
2018-12-17T01:04:13.810Z,98713.22
2018-12-17T01:05:43.813Z,98708.88
2018-12-17T01:07:13.712Z,98711.13
2018-12-17T01:08:43.787Z,98714.80
2018-12-17T01:10:13.841Z,98715.32
2018-12-17T01:11:43.735Z,98714.72
2018-12-17T01:13:13.656Z,98713.73
2018-12-17T01:14:43.646Z,98715.75
2018-12-17T01:16:13.671Z,98713.14
2018-12-17T01:17:43.590Z,98715.23
2018-12-17T01:19:13.603Z,98714.32
2018-12-17T01:20:43.510Z,98714.13
2018-12-17T01:22:13.402Z,98713.48
2018-12-17T01:23:43.519Z,98712.88
2018-12-17T01:25:13.418Z,98710.81
2018-12-17T01:26:43.304Z,98714.35
2018-12-17T01:28:13.305Z,98719.02
2018-12-17T01:29:43.215Z,98721.44
2018-12-17T01:31:13.110Z,98725.31
2018-12-17T01:32:43.143Z,98723.58
2018-12-17T01:34:13.024Z,98718.98
2018-12-17T01:35:42.910Z,98723.17
2018-12-17T01:37:20.146Z,98721.14
2018-12-17T01:38:50.032Z,98726.30
2018-12-17T01:40:19.925Z,98724.19
2018-12-17T01:41:49.804Z,98724.38
2018-12-17T01:43:19.739Z,98722.52
2018-12-17T01:44:49.616Z,98724.84
2018-12-17T01:46:19.518Z,98732.16
2018-12-17T01:47:49.421Z,98733.67
2018-12-17T01:49:19.542Z,98735.44
2018-12-17T01:50:49.435Z,98731.18
2018-12-17T01:52:19.441Z,98733.11
2018-12-17T01:53:49.331Z,98724.16
2018-12-17T01:55:19.224Z,98735.28
2018-12-17T01:56:49.096Z,98740.50
2018-12-17T01:58:18.983Z,98738.78
2018-12-17T01:59:48.883Z,98737.42
2018-12-17T02:01:18.767Z,98739.56
2018-12-17T02:02:48.888Z,98737.75
2018-12-17T02:04:18.897Z,98747.66
2018-12-17T02:05:48.785Z,98740.73
2018-12-17T02:07:18.679Z,98745.58
2018-12-17T02:08:48.702Z,98745.58
2018-12-17T02:10:18.599Z,98747.56
2018-12-17T02:11:48.475Z,98749.89
2018-12-17T02:13:18.359Z,98750.37
2018-12-17T02:14:48.263Z,98749.99
2018-12-17T02:16:18.373Z,98750.48
2018-12-17T02:17:48.411Z,98748.31
2018-12-17T02:19:18.322Z,98751.33
2018-12-17T02:20:48.239Z,98754.00
2018-12-17T02:22:18.142Z,98752.73
2018-12-17T02:23:48.134Z,98754.58
2018-12-17T02:25:18.138Z,98760.72
2018-12-17T02:26:48.034Z,98765.60
2018-12-17T02:28:17.930Z,98770.72
2018-12-17T02:29:47.832Z,98777.08
2018-12-17T02:31:18.142Z,98773.63
2018-12-17T02:32:48.045Z,98773.44
2018-12-17T02:34:17.934Z,98775.73
2018-12-17T02:35:48.031Z,98779.70
2018-12-17T02:37:17.927Z,98778.06
2018-12-17T02:38:47.823Z,98782.06
2018-12-17T02:40:17.818Z,98783.69
2018-12-17T02:41:47.826Z,98787.80
2018-12-17T02:43:17.716Z,98794.72
2018-12-17T02:44:47.735Z,98785.86
2018-12-17T02:46:28.046Z,98793.27
2018-12-17T02:47:57.938Z,98790.92
2018-12-17T02:49:52.646Z,98791.11
2018-12-17T02:51:22.550Z,98797.31
2018-12-17T02:52:52.441Z,98797.89
2018-12-17T02:54:22.340Z,98798.95
2018-12-17T02:55:52.231Z,98803.82
2018-12-17T02:57:22.161Z,98803.59
2018-12-17T02:58:52.132Z,98810.47
2018-12-17T03:00:22.047Z,98810.87
2018-12-17T03:01:52.135Z,98811.45
2018-12-17T03:03:22.043Z,98817.78
2018-12-17T03:04:52.285Z,98820.67
2018-12-17T03:06:22.395Z,98819.48
2018-12-17T03:07:52.295Z,98823.22
2018-12-17T03:09:22.694Z,98817.55
2018-12-17T03:10:52.733Z,98819.94
2018-12-17T03:12:22.755Z,98820.58
2018-12-17T03:13:52.634Z,98831.20
2018-12-17T03:15:22.548Z,98824.86
2018-12-17T03:16:52.447Z,98822.66
2018-12-17T03:18:22.377Z,98830.41
2018-12-17T03:19:52.479Z,98828.72
2018-12-17T03:21:22.516Z,98823.45
2018-12-17T03:22:52.399Z,98824.00
2018-12-17T03:24:22.534Z,98831.92
2018-12-17T03:25:52.548Z,98830.98
2018-12-17T03:27:22.432Z,98829.78
2018-12-17T03:28:52.394Z,98833.46
2018-12-17T03:30:22.472Z,98840.11
2018-12-17T03:31:52.700Z,98839.61
2018-12-17T03:33:22.593Z,98837.06
2018-12-17T03:34:52.495Z,98839.91
2018-12-17T03:36:22.411Z,98838.25
2018-12-17T03:37:52.303Z,98837.19
2018-12-17T03:39:22.189Z,98840.27
2018-12-17T03:40:52.364Z,98832.00
2018-12-17T03:42:22.350Z,98834.14
2018-12-17T03:43:52.237Z,98836.98
2018-12-17T03:45:22.254Z,98832.89
2018-12-17T03:46:52.152Z,98839.02
2018-12-17T03:48:22.035Z,98846.45
2018-12-17T03:49:51.915Z,98840.58
2018-12-17T03:51:21.937Z,98846.00
2018-12-17T03:52:51.826Z,98846.91
2018-12-17T03:54:21.731Z,98847.53
2018-12-17T03:55:51.618Z,98845.70
2018-12-17T03:57:21.500Z,98844.64
2018-12-17T03:58:59.084Z,98845.87
2018-12-17T04:00:23.565Z,98854.57
2018-12-17T04:01:53.470Z,98854.63
2018-12-17T04:03:23.476Z,98857.23
2018-12-17T04:04:53.683Z,98857.02
2018-12-17T04:06:23.593Z,98855.51
2018-12-17T04:07:53.600Z,98861.91
2018-12-17T04:09:23.487Z,98859.38
2018-12-17T04:10:53.393Z,98857.16
2018-12-17T04:12:23.494Z,98853.73
2018-12-17T04:13:53.394Z,98853.17
2018-12-17T04:15:23.494Z,98850.77
2018-12-17T04:16:53.402Z,98852.46
2018-12-17T04:18:23.398Z,98855.88
2018-12-17T04:19:53.287Z,98852.39
2018-12-17T04:21:26.230Z,98856.13
2018-12-17T04:22:56.122Z,98858.11
2018-12-17T04:24:26.006Z,98855.19
2018-12-17T04:25:56.019Z,98854.79
2018-12-17T04:27:25.916Z,98851.86
2018-12-17T04:28:55.898Z,98850.41
2018-12-17T04:30:25.908Z,98848.91
2018-12-17T04:31:55.923Z,98849.78
2018-12-17T04:33:25.825Z,98854.64
2018-12-17T04:34:56.066Z,98849.97
2018-12-17T04:36:25.976Z,98848.27
2018-12-17T04:37:55.978Z,98859.47
2018-12-17T04:39:25.855Z,98859.53
2018-12-17T04:40:55.878Z,98861.56
2018-12-17T04:42:25.823Z,98861.71
2018-12-17T04:43:55.788Z,98863.79
2018-12-17T04:45:25.691Z,98865.83
2018-12-17T04:46:55.606Z,98877.05
2018-12-17T04:48:25.494Z,98873.16
2018-12-17T04:49:55.509Z,98869.94
2018-12-17T04:51:25.667Z,98873.41
2018-12-17T04:52:55.565Z,98870.08
2018-12-17T04:54:25.608Z,98874.94
2018-12-17T04:55:55.628Z,98869.81
2018-12-17T04:57:25.544Z,98879.69
2018-12-17T04:58:55.538Z,98876.77
2018-12-17T05:00:25.663Z,98883.78
2018-12-17T05:01:55.707Z,98886.27
2018-12-17T05:03:25.595Z,98891.31
2018-12-17T05:04:55.488Z,98895.99
2018-12-17T05:06:25.500Z,98899.05
2018-12-17T05:07:55.618Z,98900.31
2018-12-17T05:09:25.516Z,98897.09
2018-12-17T05:10:55.564Z,98901.64
2018-12-17T05:12:25.555Z,98899.88
2018-12-17T05:13:55.439Z,98903.87
2018-12-17T05:15:25.329Z,98908.75
2018-12-17T05:16:55.319Z,98911.64
2018-12-17T05:18:25.306Z,98907.23
2018-12-17T05:19:55.299Z,98905.31
2018-12-17T05:21:25.218Z,98904.05
2018-12-17T05:22:55.111Z,98899.83
2018-12-17T05:24:25.001Z,98907.98
2018-12-17T05:25:54.899Z,98901.52
2018-12-17T05:27:24.808Z,98904.37
2018-12-17T05:28:54.888Z,98908.75
2018-12-17T05:30:24.782Z,98913.67
2018-12-17T05:31:54.932Z,98919.43
2018-12-17T05:33:25.067Z,98912.74
2018-12-17T05:34:55.022Z,98918.23
2018-12-17T05:36:24.959Z,98918.47
2018-12-17T05:37:55.006Z,98918.67
2018-12-17T05:39:24.894Z,98921.20
2018-12-17T05:40:55.355Z,98919.80
2018-12-17T05:42:25.251Z,98927.44
2018-12-17T05:43:55.144Z,98931.70
2018-12-17T05:45:25.168Z,98926.83
2018-12-17T05:46:55.096Z,98935.89
2018-12-17T05:48:25.087Z,98937.16
2018-12-17T05:49:54.993Z,98936.39
2018-12-17T05:51:24.881Z,98932.73
2018-12-17T05:52:55.131Z,98933.66
2018-12-17T05:54:25.118Z,98931.84
2018-12-17T05:55:55.039Z,98937.61
2018-12-17T05:57:24.940Z,98941.59
2018-12-17T05:58:54.819Z,98943.84
2018-12-17T06:00:24.935Z,98941.13
2018-12-17T06:01:54.854Z,98941.13
2018-12-17T06:03:24.768Z,98937.14
2018-12-17T06:04:54.659Z,98940.38
2018-12-17T06:06:24.687Z,98937.28
2018-12-17T06:07:54.575Z,98943.67
2018-12-17T06:09:24.688Z,98947.74
2018-12-17T06:10:54.604Z,98947.08
2018-12-17T06:12:24.492Z,98945.27
2018-12-17T06:13:54.515Z,98952.14
2018-12-17T06:15:24.411Z,98955.19
2018-12-17T06:16:54.323Z,98957.16
2018-12-17T06:18:24.198Z,98960.77
2018-12-17T06:20:01.395Z,98964.71
2018-12-17T06:21:31.291Z,98971.45
2018-12-17T06:23:01.302Z,98975.58
2018-12-17T06:24:31.182Z,98982.47
2018-12-17T06:26:01.192Z,98985.38
2018-12-17T06:27:36.735Z,98991.32
2018-12-17T06:29:03.117Z,99000.14
2018-12-17T06:30:33.123Z,99004.69
2018-12-17T06:32:03.123Z,99002.00
2018-12-17T06:33:33.006Z,98999.66
2018-12-17T06:35:03.355Z,99008.44
2018-12-17T06:36:33.278Z,99008.77
2018-12-17T06:38:03.279Z,99001.87
2018-12-17T06:39:33.263Z,99008.54
2018-12-17T06:41:03.162Z,99007.98
2018-12-17T06:42:33.067Z,99000.95
2018-12-17T06:44:03.678Z,99011.59
2018-12-17T06:45:33.692Z,99012.48
2018-12-17T06:47:03.642Z,99003.95
2018-12-17T06:48:33.536Z,99013.55
2018-12-17T06:50:04.580Z,99018.23
2018-12-17T06:51:34.719Z,99018.58
2018-12-17T06:53:04.586Z,99016.23
2018-12-17T06:54:34.605Z,99022.37
2018-12-17T06:56:04.628Z,99022.18
2018-12-17T06:57:34.544Z,99023.97
2018-12-17T06:59:04.557Z,99025.05
2018-12-17T07:00:38.420Z,99032.83
2018-12-17T07:02:08.653Z,99034.14
2018-12-17T07:03:38.535Z,99035.77
2018-12-17T07:05:08.540Z,99034.84
2018-12-17T07:06:38.547Z,99037.89
2018-12-17T07:08:08.439Z,99040.09
2018-12-17T07:09:38.334Z,99040.66
2018-12-17T07:11:08.218Z,99042.67
2018-12-17T07:12:38.110Z,99041.22
2018-12-17T07:14:08.003Z,99041.92
2018-12-17T07:15:37.903Z,99045.53
2018-12-17T07:17:07.816Z,99045.20
2018-12-17T07:18:37.815Z,99053.22
2018-12-17T07:20:07.969Z,99053.73
2018-12-17T07:21:37.890Z,99055.14
2018-12-17T07:23:07.802Z,99057.30
2018-12-17T07:24:37.694Z,99054.55
2018-12-17T07:26:07.699Z,99061.43
2018-12-17T07:27:37.635Z,99059.31
2018-12-17T07:29:07.539Z,99070.34
2018-12-17T07:30:37.433Z,99074.65
2018-12-17T07:32:07.464Z,99070.67
2018-12-17T07:33:37.466Z,99069.06
2018-12-17T07:35:07.478Z,99078.49
2018-12-17T07:36:37.626Z,99079.91
2018-12-17T07:38:07.527Z,99079.87
2018-12-17T07:39:37.559Z,99075.69
2018-12-17T07:41:07.476Z,99071.47
2018-12-17T07:42:37.390Z,99073.30
2018-12-17T07:44:07.296Z,99073.29
2018-12-17T07:45:37.211Z,99078.50
2018-12-17T07:47:07.115Z,99069.83
2018-12-17T07:48:40.164Z,99072.54
2018-12-17T07:50:10.090Z,99073.38
2018-12-17T07:51:40.109Z,99075.31
2018-12-17T07:53:10.329Z,99079.48
2018-12-17T07:54:47.822Z,99080.24
2018-12-17T07:56:17.799Z,99084.41
2018-12-17T07:57:47.704Z,99089.42
2018-12-17T07:59:17.620Z,99083.99
2018-12-17T08:00:47.558Z,99092.00
2018-12-17T08:02:17.534Z,99092.15
2018-12-17T08:03:47.441Z,99096.28
2018-12-17T08:05:17.386Z,99096.09
2018-12-17T08:06:53.058Z,99096.46
2018-12-17T08:08:22.959Z,99101.67
2018-12-17T08:09:52.876Z,99100.22
2018-12-17T08:11:22.864Z,99100.77
2018-12-17T08:12:52.909Z,99101.67
2018-12-17T08:14:22.829Z,99099.38
2018-12-17T08:15:52.879Z,99103.08
2018-12-17T08:17:22.936Z,99113.97
2018-12-17T08:18:52.871Z,99115.05
2018-12-17T08:20:22.805Z,99122.59
2018-12-17T08:21:52.751Z,99126.92
2018-12-17T08:23:22.689Z,99132.37
2018-12-17T08:24:52.599Z,99141.79
2018-12-17T08:26:22.544Z,99143.44
2018-12-17T08:27:52.513Z,99140.37
2018-12-17T08:29:22.460Z,99136.61
2018-12-17T08:30:52.510Z,99130.80
2018-12-17T08:32:22.475Z,99129.69
2018-12-17T08:33:52.476Z,99136.86
2018-12-17T08:35:22.394Z,99134.85
2018-12-17T08:36:52.526Z,99129.36
2018-12-17T08:38:22.439Z,99129.11
2018-12-17T08:39:52.440Z,99128.50
2018-12-17T08:41:22.362Z,99132.89
2018-12-17T08:42:53.207Z,99125.53
2018-12-17T08:44:23.179Z,99128.00
2018-12-17T08:45:54.059Z,99136.78
2018-12-17T08:47:24.011Z,99131.08
2018-12-17T08:48:53.969Z,99131.44
2018-12-17T08:50:24.025Z,99131.01
2018-12-17T08:51:53.978Z,99136.28
2018-12-17T08:53:23.934Z,99134.22
2018-12-17T08:54:54.013Z,99137.83
2018-12-17T08:56:23.956Z,99137.01
2018-12-17T08:57:53.915Z,99137.36
2018-12-17T08:59:23.978Z,99139.84
2018-12-17T09:00:54.015Z,99140.73
2018-12-17T09:02:24.097Z,99141.95
2018-12-17T09:03:54.006Z,99148.42
2018-12-17T09:05:23.928Z,99148.43
2018-12-17T09:06:53.850Z,99155.27
2018-12-17T09:08:23.838Z,99156.97
2018-12-17T09:09:53.731Z,99164.13
2018-12-17T09:11:23.655Z,99164.13
2018-12-17T09:12:53.672Z,99163.34
2018-12-17T09:14:23.563Z,99167.64
2018-12-17T09:15:53.549Z,99169.27
2018-12-17T09:17:23.445Z,99179.84
2018-12-17T09:18:53.326Z,99185.30
2018-12-17T09:20:23.337Z,99179.57
2018-12-17T09:21:53.432Z,99186.59
2018-12-17T09:23:23.471Z,99186.29
2018-12-17T09:24:53.487Z,99194.02
2018-12-17T09:26:23.391Z,99190.55
2018-12-17T09:27:53.305Z,99188.25
2018-12-17T09:29:23.312Z,99189.91
2018-12-17T09:30:53.234Z,99192.45
2018-12-17T09:32:23.134Z,99193.64
2018-12-17T09:33:53.047Z,99193.50
2018-12-17T09:35:23.075Z,99193.82
2018-12-17T09:36:53.028Z,99188.73
2018-12-17T09:38:22.934Z,99193.44
2018-12-17T09:39:52.972Z,99196.19
2018-12-17T09:41:23.285Z,99200.63
2018-12-17T09:42:53.250Z,99195.44
2018-12-17T09:44:23.395Z,99192.80
2018-12-17T09:45:53.287Z,99197.12
2018-12-17T09:47:23.332Z,99199.47
2018-12-17T09:48:53.360Z,99200.70
2018-12-17T09:50:23.362Z,99203.17
2018-12-17T09:51:53.260Z,99198.73
2018-12-17T09:53:23.318Z,99199.05
2018-12-17T09:54:53.227Z,99199.67
2018-12-17T09:56:23.242Z,99199.47
2018-12-17T09:57:53.152Z,99197.02
2018-12-17T09:59:23.171Z,99201.11
2018-12-17T10:00:53.070Z,99197.91
2018-12-17T10:02:22.982Z,99198.70
2018-12-17T10:03:52.882Z,99200.84
2018-12-17T10:05:22.828Z,99195.95
2018-12-17T10:06:52.760Z,99197.36
2018-12-17T10:08:22.755Z,99194.08
2018-12-17T10:09:52.710Z,99196.83
2018-12-17T10:11:22.692Z,99197.34
2018-12-17T10:12:52.634Z,99207.58
2018-12-17T10:14:22.704Z,99203.59
2018-12-17T10:15:52.695Z,99210.09
2018-12-17T10:17:22.666Z,99202.20
2018-12-17T10:18:52.622Z,99211.03
2018-12-17T10:20:22.656Z,99201.78
2018-12-17T10:21:52.841Z,99206.27
2018-12-17T10:23:22.774Z,99206.95
2018-12-17T10:27:24.920Z,99197.87
2018-12-17T10:32:00.392Z,99204.91
2018-12-17T10:33:30.345Z,99199.02
2018-12-17T10:35:13.281Z,99206.45
2018-12-17T10:36:43.353Z,99209.74
2018-12-17T10:38:13.411Z,99210.16
2018-12-17T10:39:43.349Z,99206.27
2018-12-17T10:41:13.279Z,99210.17
2018-12-17T10:42:43.233Z,99211.87
2018-12-17T10:44:13.288Z,99214.92
2018-12-17T10:45:43.338Z,99212.38
2018-12-17T10:47:13.339Z,99217.05
2018-12-17T10:48:43.353Z,99210.90
2018-12-17T10:50:13.255Z,99208.35
2018-12-17T10:51:43.299Z,99220.36
2018-12-17T10:53:13.211Z,99220.38
2018-12-17T10:54:43.154Z,99221.23
2018-12-17T10:56:13.047Z,99220.17
2018-12-17T10:57:42.951Z,99219.66
2018-12-17T10:59:12.863Z,99221.91
2018-12-17T11:00:48.654Z,99217.88
2018-12-17T11:02:25.947Z,99221.95
2018-12-17T11:04:02.495Z,99221.02
2018-12-17T11:05:32.920Z,99221.95
2018-12-17T11:07:03.462Z,99220.29
2018-12-17T11:08:33.393Z,99211.48
2018-12-17T11:12:54.567Z,99216.34
2018-12-17T11:14:24.715Z,99212.52
2018-12-17T11:15:54.763Z,99212.45
2018-12-17T11:17:24.698Z,99216.06
2018-12-17T11:18:54.619Z,99219.43
2018-12-17T11:20:24.558Z,99208.34
2018-12-17T11:21:54.588Z,99212.02
2018-12-17T11:23:24.615Z,99210.14
2018-12-17T11:24:54.519Z,99212.46
2018-12-17T11:26:24.435Z,99214.34
2018-12-17T11:27:54.379Z,99220.70
2018-12-17T11:29:24.306Z,99215.52
2018-12-17T11:30:54.213Z,99228.51
2018-12-17T11:32:24.225Z,99225.36
2018-12-17T11:33:55.776Z,99224.92
2018-12-17T11:35:25.780Z,99213.30
2018-12-17T11:36:55.888Z,99211.31
2018-12-17T11:38:25.811Z,99212.31
2018-12-17T11:39:55.895Z,99201.85
2018-12-17T11:41:25.934Z,99205.19
2018-12-17T11:42:56.020Z,99200.69
2018-12-17T11:44:25.961Z,99201.95
2018-12-17T11:45:57.111Z,99194.67
2018-12-17T11:47:27.105Z,99198.30
2018-12-17T11:48:57.140Z,99195.20
2018-12-17T11:50:27.166Z,99196.78
2018-12-17T11:51:57.120Z,99187.14
2018-12-17T11:53:27.070Z,99194.67
2018-12-17T11:54:56.984Z,99200.56
2018-12-17T11:57:37.190Z,99202.92
2018-12-17T11:59:07.116Z,99216.83
2018-12-17T12:03:01.421Z,99227.09
2018-12-17T12:04:55.823Z,99225.09
2018-12-17T12:06:25.793Z,99223.46
2018-12-17T12:07:55.963Z,99229.88
2018-12-17T12:09:26.334Z,99223.03
2018-12-17T12:10:56.883Z,99229.28
2018-12-17T12:12:26.903Z,99229.91
2018-12-17T12:13:56.863Z,99232.01
2018-12-17T12:15:26.770Z,99230.17
2018-12-17T12:16:56.685Z,99223.55
2018-12-17T12:18:26.598Z,99228.49
2018-12-17T12:19:56.491Z,99225.51
2018-12-17T12:21:26.404Z,99235.84
2018-12-17T12:22:56.451Z,99239.91
2018-12-17T12:24:26.354Z,99231.97
2018-12-17T12:25:56.386Z,99233.14
2018-12-17T12:27:26.424Z,99231.27
2018-12-17T12:28:56.387Z,99237.43
2018-12-17T12:30:26.290Z,99240.31
2018-12-17T12:31:56.357Z,99235.57
2018-12-17T12:33:26.260Z,99236.77
2018-12-17T12:34:56.389Z,99235.70
2018-12-17T12:36:26.298Z,99230.55
2018-12-17T12:40:21.208Z,99246.34
2018-12-17T12:41:51.138Z,99240.50
2018-12-17T12:43:21.086Z,99241.15
2018-12-17T12:44:51.155Z,99242.44
2018-12-17T12:46:21.214Z,99245.47
2018-12-17T12:47:51.140Z,99247.15
2018-12-17T12:49:21.114Z,99256.89
2018-12-17T12:50:51.142Z,99246.47
2018-12-17T12:52:21.099Z,99248.72
2018-12-17T12:53:51.039Z,99253.47
2018-12-17T12:55:21.085Z,99256.39
2018-12-17T12:56:50.988Z,99252.43
2018-12-17T12:58:20.897Z,99253.17
2018-12-17T12:59:50.790Z,99260.38
2018-12-17T13:01:20.696Z,99263.21
2018-12-17T13:02:50.622Z,99251.89
2018-12-17T13:04:20.578Z,99260.22
2018-12-17T13:05:50.487Z,99260.38
2018-12-17T13:07:20.390Z,99263.83
2018-12-17T13:08:50.304Z,99264.25
2018-12-17T13:10:28.228Z,99260.88
2018-12-17T13:12:22.615Z,99272.39
2018-12-17T13:13:52.603Z,99277.14
2018-12-17T13:15:22.743Z,99278.70
2018-12-17T13:16:52.775Z,99273.51
2018-12-17T13:18:22.694Z,99266.38
2018-12-17T13:19:52.648Z,99274.58
2018-12-17T13:21:22.566Z,99273.18
2018-12-17T13:22:52.476Z,99279.23
2018-12-17T13:24:22.410Z,99275.97
2018-12-17T13:26:27.674Z,99285.78
2018-12-17T13:27:57.592Z,99281.86
2018-12-17T13:34:15.812Z,99295.55
2018-12-17T13:35:45.713Z,99295.77
2018-12-17T13:37:18.800Z,99295.77
2018-12-17T13:38:48.847Z,99299.67
2018-12-17T13:40:18.743Z,99300.34
2018-12-17T13:41:48.683Z,99304.37
2018-12-17T13:43:18.575Z,99309.18
2018-12-17T13:44:48.955Z,99315.13
2018-12-17T13:46:18.862Z,99313.30
2018-12-17T13:47:48.778Z,99313.00
2018-12-17T13:49:18.814Z,99321.94
2018-12-17T13:50:50.687Z,99325.47
2018-12-17T13:52:26.610Z,99333.84
2018-12-17T13:53:59.119Z,99330.19
2018-12-17T13:55:29.031Z,99330.65
2018-12-17T13:56:59.051Z,99336.19
2018-12-17T13:58:28.952Z,99336.48
2018-12-17T13:59:58.906Z,99342.12
2018-12-17T14:01:28.808Z,99342.56
2018-12-17T14:02:58.896Z,99347.23
2018-12-17T14:04:28.841Z,99348.64
2018-12-17T14:05:58.888Z,99353.20
2018-12-17T14:07:28.799Z,99357.24
2018-12-17T14:08:58.854Z,99358.82
2018-12-17T14:10:34.677Z,99357.92
2018-12-17T14:12:04.753Z,99364.09
2018-12-17T14:13:34.908Z,99367.44
2018-12-17T14:15:04.977Z,99372.58
2018-12-17T14:16:40.678Z,99370.63
2018-12-17T14:18:16.297Z,99377.77
2018-12-17T14:19:52.253Z,99377.30
2018-12-17T14:21:27.895Z,99386.58
2018-12-17T14:22:57.912Z,99389.59
2018-12-17T14:24:27.948Z,99385.05
2018-12-17T14:25:57.883Z,99398.53
2018-12-17T14:27:27.905Z,99393.08
2018-12-17T14:28:57.817Z,99396.09
2018-12-17T14:30:27.767Z,99400.01
2018-12-17T14:31:57.794Z,99406.17
2018-12-17T14:33:27.694Z,99416.16
2018-12-17T14:34:57.719Z,99412.22
2018-12-17T14:36:27.720Z,99411.16
2018-12-17T14:38:01.859Z,99417.44
2018-12-17T14:39:39.694Z,99419.66
2018-12-17T14:41:09.807Z,99415.09
2018-12-17T14:42:39.730Z,99419.73
2018-12-17T14:44:15.396Z,99412.93
2018-12-17T14:45:45.370Z,99415.81
2018-12-17T14:47:15.348Z,99409.11
2018-12-17T14:48:45.342Z,99415.56
2018-12-17T14:50:17.062Z,99412.09
2018-12-17T14:51:54.489Z,99412.00
2018-12-17T14:53:24.563Z,99409.66
2018-12-17T14:54:54.495Z,99416.72
2018-12-17T14:56:24.431Z,99413.66
2018-12-17T14:57:54.379Z,99417.10
2018-12-17T14:59:24.778Z,99412.89
2018-12-17T15:00:54.769Z,99430.53
2018-12-17T15:02:24.761Z,99424.66
2018-12-17T15:03:54.740Z,99420.92
2018-12-17T15:05:24.884Z,99416.89
2018-12-17T15:06:54.823Z,99417.86
2018-12-17T15:08:24.736Z,99422.96
2018-12-17T15:09:54.788Z,99424.66
2018-12-17T15:11:24.743Z,99423.47
2018-12-17T15:12:54.680Z,99427.73
2018-12-17T15:14:24.623Z,99433.42
2018-12-17T15:15:54.981Z,99435.41
2018-12-17T15:17:25.067Z,99435.33
2018-12-17T15:18:55.027Z,99439.30
2018-12-17T15:20:25.025Z,99448.42
2018-12-17T15:21:54.978Z,99448.33
2018-12-17T15:23:25.150Z,99455.97
2018-12-17T15:24:55.095Z,99453.65
2018-12-17T15:26:25.096Z,99459.61
2018-12-17T15:27:55.099Z,99459.02
2018-12-17T15:29:25.178Z,99462.05
2018-12-17T15:30:55.193Z,99470.50
2018-12-17T15:32:25.312Z,99471.02
2018-12-17T15:33:55.210Z,99478.55
2018-12-17T15:35:25.156Z,99484.19
2018-12-17T15:36:56.372Z,99479.47
2018-12-17T15:38:26.266Z,99478.20
2018-12-17T15:39:56.195Z,99485.67
2018-12-17T15:41:26.094Z,99484.28
2018-12-17T15:42:55.987Z,99491.00
2018-12-17T15:44:26.130Z,99485.73
2018-12-17T15:45:56.066Z,99492.86
2018-12-17T15:47:25.975Z,99491.45
2018-12-17T15:48:55.885Z,99492.52
2018-12-17T15:50:25.925Z,99499.03
2018-12-17T15:51:55.808Z,99504.68
2018-12-17T15:53:25.700Z,99506.81
2018-12-17T15:54:55.627Z,99509.27
2018-12-17T15:56:25.623Z,99506.28
2018-12-17T15:57:55.514Z,99505.86
2018-12-17T15:59:25.532Z,99515.09
2018-12-17T16:00:55.501Z,99516.27
2018-12-17T16:02:25.414Z,99515.10
2018-12-17T16:03:55.552Z,99522.23
2018-12-17T16:05:25.474Z,99511.38
2018-12-17T16:06:55.372Z,99517.03
2018-12-17T16:08:47.922Z,99519.23
2018-12-17T16:10:17.869Z,99512.93
2018-12-17T16:11:47.767Z,99512.31
2018-12-17T16:13:17.814Z,99525.66
2018-12-17T16:14:48.645Z,99530.36
2018-12-17T16:16:18.677Z,99536.86
2018-12-17T16:17:48.568Z,99537.55
2018-12-17T16:19:18.525Z,99537.52
2018-12-17T16:20:49.569Z,99537.91
2018-12-17T16:22:19.549Z,99543.00
2018-12-17T16:23:49.474Z,99545.69
2018-12-17T16:25:19.478Z,99552.48
2018-12-17T16:26:50.227Z,99557.92
2018-12-17T16:28:20.187Z,99565.16
2018-12-17T16:29:50.174Z,99564.50
2018-12-17T16:31:20.243Z,99561.33
2018-12-17T16:32:50.139Z,99562.81
2018-12-17T16:34:20.093Z,99559.81
2018-12-17T16:35:50.007Z,99559.09
2018-12-17T16:37:19.970Z,99556.44
2018-12-17T16:38:50.192Z,99559.20
2018-12-17T16:40:20.727Z,99555.58
2018-12-17T16:41:51.010Z,99562.95
2018-12-17T16:43:21.101Z,99563.23
2018-12-17T16:44:51.028Z,99564.40
2018-12-17T16:46:21.034Z,99561.75
2018-12-17T16:47:51.038Z,99560.95
2018-12-17T16:49:21.167Z,99562.73
2018-12-17T16:50:51.411Z,99569.87
2018-12-17T16:52:21.354Z,99570.01
2018-12-17T16:53:51.335Z,99574.14
2018-12-17T16:55:21.650Z,99573.36
2018-12-17T16:56:51.664Z,99571.39
2018-12-17T16:58:29.651Z,99574.59
2018-12-17T16:59:59.823Z,99578.93
2018-12-17T17:01:29.830Z,99577.72
2018-12-17T17:02:59.748Z,99585.95
2018-12-17T17:04:29.780Z,99584.50
2018-12-17T17:05:59.714Z,99591.66
2018-12-17T17:07:29.619Z,99594.38
2018-12-17T17:08:59.525Z,99591.72
2018-12-17T17:10:29.651Z,99584.59
2018-12-17T17:11:59.707Z,99588.50
2018-12-17T17:13:29.754Z,99589.59
2018-12-17T17:15:10.099Z,99595.94
2018-12-17T17:16:40.246Z,99594.64
2018-12-17T17:18:10.299Z,99595.56
2018-12-17T17:19:40.470Z,99601.61
2018-12-17T17:21:10.507Z,99600.34
2018-12-17T17:22:40.512Z,99606.77
2018-12-17T17:24:10.418Z,99602.98
2018-12-17T17:25:40.482Z,99606.47
2018-12-17T17:27:10.380Z,99612.28
2018-12-17T17:28:40.307Z,99610.98
2018-12-17T17:30:10.626Z,99609.16
2018-12-17T17:31:40.835Z,99606.55
2018-12-17T17:33:10.779Z,99612.63
2018-12-17T17:34:48.409Z,99614.66
2018-12-17T17:36:18.467Z,99612.63
2018-12-17T17:37:48.343Z,99612.43
2018-12-17T17:39:18.330Z,99620.14
2018-12-17T17:40:48.552Z,99616.91
2018-12-17T17:42:32.187Z,99624.05
2018-12-17T17:44:02.404Z,99620.28
2018-12-17T17:45:32.365Z,99622.70
2018-12-17T17:47:02.391Z,99628.00
2018-12-17T17:48:32.287Z,99631.99
2018-12-17T17:50:03.067Z,99627.23
2018-12-17T17:51:33.483Z,99631.80
2018-12-17T17:53:03.506Z,99634.34
2018-12-17T17:54:33.656Z,99643.59
2018-12-17T17:56:03.687Z,99642.89
2018-12-17T17:57:33.671Z,99641.55
2018-12-17T17:59:03.757Z,99639.56
2018-12-17T18:00:33.733Z,99641.03
2018-12-17T18:02:03.914Z,99638.69
2018-12-17T18:03:34.435Z,99641.03